createdAt,value
2023-02-28T00:00:27.926Z,57.91
2023-02-28T00:03:20.599Z,58.01
2023-02-28T00:05:53.454Z,57.84
2023-02-28T00:08:28.434Z,57.98
2023-02-28T00:11:05.947Z,57.78
2023-02-28T00:13:41.998Z,57.45
2023-02-28T00:16:17.068Z,57.52
2023-02-28T00:18:49.948Z,57.68
2023-02-28T00:21:23.594Z,57.72
2023-02-28T00:23:56.098Z,57.65
2023-02-28T00:26:28.818Z,57.74
2023-02-28T00:29:01.827Z,57.30
2023-02-28T00:31:34.262Z,57.38
2023-02-28T00:34:06.968Z,57.38
2023-02-28T00:36:39.911Z,57.66
2023-02-28T00:39:12.291Z,57.64
2023-02-28T00:41:44.654Z,57.83
2023-02-28T00:44:17.156Z,58.02
2023-02-28T00:46:49.548Z,58.09
2023-02-28T00:49:22.496Z,58.39
2023-02-28T00:51:55.873Z,58.63
2023-02-28T00:54:46.895Z,58.47
2023-02-28T00:57:20.821Z,58.29
2023-02-28T00:59:55.632Z,58.16
2023-02-28T01:02:27.988Z,58.04
2023-02-28T01:05:00.731Z,58.06
2023-02-28T01:07:35.998Z,57.85
2023-02-28T01:10:11.271Z,57.94
2023-02-28T01:12:43.869Z,57.99
2023-02-28T01:15:16.832Z,58.18
2023-02-28T01:17:51.208Z,58.31
2023-02-28T01:20:23.919Z,58.50
2023-02-28T01:22:56.330Z,58.66
2023-02-28T01:25:29.043Z,58.89
2023-02-28T01:28:01.666Z,58.98
2023-02-28T01:30:34.297Z,59.12
2023-02-28T01:33:06.666Z,58.82
2023-02-28T01:35:39.801Z,58.58
2023-02-28T01:38:21.702Z,58.36
2023-02-28T01:40:56.080Z,58.33
2023-02-28T01:43:30.604Z,58.25
2023-02-28T01:46:03.316Z,58.39
2023-02-28T01:48:42.720Z,58.27
2023-02-28T01:51:20.472Z,58.05
2023-02-28T01:53:57.234Z,58.06
2023-02-28T01:56:34.001Z,58.20
2023-02-28T01:59:07.311Z,58.42
2023-02-28T02:01:40.085Z,58.72
2023-02-28T02:04:12.836Z,58.97
2023-02-28T02:06:49.171Z,59.09
2023-02-28T02:09:22.486Z,59.12
2023-02-28T02:11:57.864Z,59.24
2023-02-28T02:14:51.841Z,59.24
2023-02-28T02:17:33.263Z,59.36
2023-02-28T02:20:50.776Z,59.28
2023-02-28T02:23:53.996Z,59.22
2023-02-28T02:26:53.812Z,59.18
2023-02-28T02:29:59.962Z,59.24
2023-02-28T02:33:00.956Z,59.04
2023-02-28T02:35:42.720Z,59.04
2023-02-28T02:38:24.418Z,58.95
2023-02-28T02:41:05.539Z,58.86
2023-02-28T02:43:43.072Z,58.96
2023-02-28T02:46:21.273Z,59.07
2023-02-28T02:48:57.556Z,59.28
2023-02-28T02:51:33.564Z,59.45
2023-02-28T02:54:11.079Z,59.34
2023-02-28T02:56:49.000Z,59.34
2023-02-28T02:59:24.962Z,59.38
2023-02-28T03:02:00.702Z,59.36
2023-02-28T03:04:37.397Z,59.31
2023-02-28T03:07:10.205Z,59.19
2023-02-28T03:09:52.835Z,59.06
2023-02-28T03:12:34.706Z,59.19
2023-02-28T03:15:18.732Z,59.06
2023-02-28T03:18:06.749Z,58.83
2023-02-28T03:20:52.257Z,58.81
2023-02-28T03:23:32.341Z,58.49
2023-02-28T03:26:10.327Z,58.59
2023-02-28T03:28:49.624Z,58.59
2023-02-28T03:31:29.189Z,58.43
2023-02-28T03:34:11.278Z,58.39
2023-02-28T03:36:49.285Z,58.49
2023-02-28T03:39:26.583Z,58.65
2023-02-28T03:42:03.539Z,58.75
2023-02-28T03:44:40.508Z,58.86
2023-02-28T03:47:16.273Z,59.08
2023-02-28T03:49:53.207Z,59.21
2023-02-28T03:52:29.438Z,59.18
2023-02-28T03:55:08.181Z,59.48
2023-02-28T03:57:47.973Z,59.74
2023-02-28T04:00:29.208Z,59.81
2023-02-28T04:03:02.356Z,59.65
2023-02-28T04:05:46.295Z,59.54
2023-02-28T04:08:18.639Z,59.44
2023-02-28T04:10:57.390Z,59.45
2023-02-28T04:13:30.638Z,59.37
2023-02-28T04:16:18.715Z,59.29
2023-02-28T04:19:02.997Z,59.14
2023-02-28T04:21:37.106Z,59.15
2023-02-28T04:24:15.020Z,59.26
2023-02-28T04:26:49.672Z,59.42
2023-02-28T04:29:25.605Z,59.35
2023-02-28T04:32:00.196Z,59.28
2023-02-28T04:34:34.557Z,59.34
2023-02-28T04:37:13.845Z,59.34
2023-02-28T04:39:46.943Z,59.43
2023-02-28T04:42:19.294Z,59.03
2023-02-28T04:44:51.827Z,59.04
2023-02-28T04:47:24.499Z,59.08
2023-02-28T04:49:56.889Z,59.22
2023-02-28T04:52:31.262Z,59.06
2023-02-28T04:55:03.959Z,59.20
2023-02-28T04:57:36.297Z,59.47
2023-02-28T05:00:12.571Z,59.55
2023-02-28T05:02:45.256Z,59.72
2023-02-28T05:05:19.195Z,59.52
2023-02-28T05:07:51.657Z,59.37
2023-02-28T05:10:24.167Z,59.66
2023-02-28T05:12:56.946Z,59.53
2023-02-28T05:15:29.478Z,59.46
2023-02-28T05:18:02.751Z,59.36
2023-02-28T05:20:35.167Z,59.32
2023-02-28T05:23:07.559Z,59.45
2023-02-28T05:25:40.014Z,59.38
2023-02-28T05:28:12.714Z,59.35
2023-02-28T05:30:45.428Z,59.43
2023-02-28T05:33:18.231Z,59.38
2023-02-28T05:35:52.905Z,59.27
2023-02-28T05:38:25.919Z,59.30
2023-02-28T05:40:58.383Z,59.08
2023-02-28T05:43:30.950Z,59.22
2023-02-28T05:46:06.848Z,59.28
2023-02-28T05:48:41.417Z,59.33
2023-02-28T05:51:13.945Z,59.53
2023-02-28T05:53:46.501Z,59.42
2023-02-28T05:56:19.367Z,59.51
2023-02-28T05:58:51.781Z,59.56
2023-02-28T06:01:28.138Z,59.54
2023-02-28T06:04:00.709Z,59.43
2023-02-28T06:06:37.369Z,59.21
2023-02-28T06:09:09.987Z,59.23
2023-02-28T06:11:42.486Z,59.30
2023-02-28T06:14:20.355Z,59.29
2023-02-28T06:16:53.317Z,59.34
2023-02-28T06:19:27.462Z,59.71
2023-02-28T06:22:03.593Z,59.62
2023-02-28T06:24:36.102Z,59.72
2023-02-28T06:27:08.467Z,59.65
2023-02-28T06:29:41.738Z,59.96
2023-02-28T06:32:14.591Z,60.37
2023-02-28T06:34:47.508Z,60.44
2023-02-28T06:37:20.285Z,60.54
2023-02-28T06:39:52.823Z,60.28
2023-02-28T06:42:31.886Z,60.31
2023-02-28T06:45:10.485Z,60.45
2023-02-28T06:47:44.416Z,60.57
2023-02-28T06:50:20.695Z,60.69
2023-02-28T06:52:55.355Z,60.86
2023-02-28T06:55:30.607Z,60.90
2023-02-28T06:58:15.902Z,60.82
2023-02-28T07:00:52.852Z,61.15
2023-02-28T07:03:25.235Z,61.32
2023-02-28T07:05:58.493Z,61.38
2023-02-28T07:08:32.638Z,61.32
2023-02-28T07:11:05.707Z,61.43
2023-02-28T07:13:38.333Z,61.98
2023-02-28T07:16:13.522Z,61.87
2023-02-28T07:18:46.167Z,62.05
2023-02-28T07:21:19.413Z,62.23
2023-02-28T07:23:52.865Z,62.24
2023-02-28T07:26:25.620Z,62.25
2023-02-28T07:28:58.036Z,62.73
2023-02-28T07:31:30.870Z,62.84
2023-02-28T07:34:03.608Z,62.76
2023-02-28T07:36:36.039Z,63.03
2023-02-28T07:39:10.357Z,63.10
2023-02-28T07:41:44.698Z,63.31
2023-02-28T07:44:17.773Z,63.63
2023-02-28T07:46:50.349Z,63.69
2023-02-28T07:49:22.926Z,63.37
2023-02-28T07:51:56.040Z,63.48
2023-02-28T07:54:28.501Z,63.63
2023-02-28T07:57:00.941Z,63.62
2023-02-28T07:59:33.649Z,63.54
2023-02-28T08:02:06.230Z,63.54
2023-02-28T08:04:38.941Z,63.90
2023-02-28T08:07:14.695Z,63.78
2023-02-28T08:09:47.786Z,63.51
2023-02-28T08:12:20.472Z,63.74
2023-02-28T08:14:53.023Z,63.60
2023-02-28T08:17:25.423Z,63.25
2023-02-28T08:19:57.968Z,63.10
2023-02-28T08:22:30.639Z,63.12
2023-02-28T08:25:03.021Z,63.27
2023-02-28T08:27:35.401Z,62.91
2023-02-28T08:30:09.893Z,62.90
2023-02-28T08:32:42.675Z,62.58
2023-02-28T08:35:15.743Z,62.56
2023-02-28T08:37:49.507Z,62.42
2023-02-28T08:40:22.272Z,62.38
2023-02-28T08:42:54.717Z,62.35
2023-02-28T08:45:27.323Z,62.17
2023-02-28T08:47:59.872Z,62.38
2023-02-28T08:50:32.518Z,61.92
2023-02-28T08:53:05.604Z,61.68
2023-02-28T08:55:38.734Z,61.48
2023-02-28T08:58:11.316Z,61.64
2023-02-28T09:00:43.864Z,61.04
2023-02-28T09:03:16.236Z,60.78
2023-02-28T09:05:58.526Z,60.79
2023-02-28T09:08:32.426Z,60.46
2023-02-28T09:11:05.346Z,59.81
2023-02-28T09:13:38.071Z,59.66
2023-02-28T09:16:17.232Z,59.54
2023-02-28T09:18:49.944Z,59.37
2023-02-28T09:21:23.036Z,58.57
2023-02-28T09:23:55.997Z,58.41
2023-02-28T09:26:35.292Z,57.94
2023-02-28T09:29:15.589Z,57.62
2023-02-28T09:31:48.437Z,57.70
2023-02-28T09:34:21.002Z,57.70
2023-02-28T09:36:56.216Z,56.92
2023-02-28T09:39:29.766Z,56.08
2023-02-28T09:42:04.029Z,56.47
2023-02-28T09:44:41.575Z,56.66
2023-02-28T09:47:28.076Z,55.97
2023-02-28T09:50:06.947Z,55.77
2023-02-28T09:52:40.620Z,54.58
2023-02-28T09:55:32.713Z,53.24
2023-02-28T09:58:12.277Z,53.03
2023-02-28T10:00:44.791Z,52.89
2023-02-28T10:03:32.507Z,52.71
2023-02-28T10:06:13.478Z,52.30
2023-02-28T10:08:54.249Z,51.85
2023-02-28T10:11:29.343Z,52.54
2023-02-28T10:14:06.910Z,52.17
2023-02-28T10:16:44.572Z,51.57
2023-02-28T10:19:21.297Z,51.21
2023-02-28T10:22:00.999Z,50.24
2023-02-28T10:24:38.256Z,49.95
2023-02-28T10:27:18.804Z,50.65
2023-02-28T10:29:53.372Z,50.80
2023-02-28T10:32:25.630Z,50.63
2023-02-28T10:35:02.108Z,50.81
2023-02-28T10:37:39.186Z,50.30
2023-02-28T10:40:31.166Z,50.14
2023-02-28T10:43:05.546Z,48.78
2023-02-28T10:45:39.368Z,48.11
2023-02-28T10:48:35.562Z,47.54
2023-02-28T10:51:10.372Z,47.58
2023-02-28T10:54:00.441Z,47.19
2023-02-28T10:56:34.579Z,47.19
2023-02-28T10:59:30.642Z,46.36
2023-02-28T11:02:37.619Z,46.37
2023-02-28T11:05:29.026Z,46.98
2023-02-28T11:08:09.120Z,46.89
2023-02-28T11:11:06.035Z,46.69
2023-02-28T11:14:00.998Z,46.40
2023-02-28T11:16:54.996Z,45.93
2023-02-28T11:19:52.410Z,46.75
2023-02-28T11:22:47.741Z,45.72
2023-02-28T11:25:26.138Z,46.50
2023-02-28T11:28:02.256Z,45.37
2023-02-28T11:30:40.317Z,44.77
2023-02-28T11:33:32.640Z,44.98
2023-02-28T11:36:12.045Z,45.95
2023-02-28T11:38:45.091Z,44.61
2023-02-28T11:41:44.045Z,43.75
2023-02-28T11:44:41.127Z,43.07
2023-02-28T11:47:24.758Z,43.72
2023-02-28T11:50:13.123Z,44.81
2023-02-28T11:52:53.971Z,44.46
2023-02-28T11:55:30.881Z,44.26
2023-02-28T11:58:34.229Z,43.62
2023-02-28T12:01:19.354Z,43.13
2023-02-28T12:04:03.721Z,43.43
2023-02-28T12:06:41.332Z,43.73
2023-02-28T12:09:31.167Z,43.42
2023-02-28T12:12:14.845Z,43.36
2023-02-28T12:15:08.141Z,43.80
2023-02-28T12:17:51.184Z,43.95
2023-02-28T12:20:34.820Z,43.35
2023-02-28T12:23:24.241Z,43.72
2023-02-28T12:26:10.535Z,43.08
2023-02-28T12:28:48.457Z,42.88
2023-02-28T12:31:26.454Z,42.65
2023-02-28T12:34:02.934Z,42.75
2023-02-28T12:36:38.927Z,42.89
2023-02-28T12:39:18.930Z,42.76
2023-02-28T12:41:57.013Z,42.76
2023-02-28T12:44:35.332Z,42.42
2023-02-28T12:47:18.091Z,42.13
2023-02-28T12:49:54.524Z,42.44
2023-02-28T12:52:33.826Z,42.66
2023-02-28T12:55:15.637Z,42.39
2023-02-28T12:57:54.649Z,42.81
2023-02-28T13:00:35.918Z,42.45
2023-02-28T13:03:42.622Z,42.10
2023-02-28T13:06:32.229Z,42.82
2023-02-28T13:09:16.611Z,42.07
2023-02-28T13:11:52.150Z,42.41
2023-02-28T13:14:37.970Z,42.37
2023-02-28T13:17:21.494Z,42.96
2023-02-28T13:20:02.224Z,42.18
2023-02-28T13:22:46.474Z,41.96
2023-02-28T13:25:53.176Z,41.94
2023-02-28T13:29:09.316Z,42.23
2023-02-28T13:32:15.103Z,41.40
2023-02-28T13:35:11.386Z,41.13
2023-02-28T13:37:50.933Z,41.53
2023-02-28T13:40:38.747Z,41.33
2023-02-28T13:43:13.131Z,41.02
2023-02-28T13:46:12.668Z,41.15
2023-02-28T13:48:45.992Z,41.10
2023-02-28T13:51:46.693Z,41.13
2023-02-28T13:54:31.921Z,40.61
2023-02-28T13:57:20.938Z,41.12
2023-02-28T14:00:10.230Z,41.17
2023-02-28T14:03:13.246Z,40.65
2023-02-28T14:05:47.078Z,40.39
2023-02-28T14:08:24.738Z,40.70
2023-02-28T14:11:08.897Z,40.67
2023-02-28T14:13:48.413Z,40.39
2023-02-28T14:16:27.617Z,40.02
2023-02-28T14:19:04.679Z,39.86
2023-02-28T14:21:42.729Z,38.47
